McAllen, Texas
Current Conditions -  °F | °C
As of 11:53 PM on Wednesday 22 Oct 2014 (Local Time) from KMFE Reporting Station
Broken Clouds Broken Clouds  
Wind Chill: 74°   Ceiling: 10000
Heat Index: 74°   Visibility: 10mi
Dew Point: 67°   Wind: 7mph
Humidity: 79%   Direction: 50°NE
Pressure: 30.05"   Gusts: NA
Location:  26.21°N, 98.23°W
Report Text: KMFE 230453Z AUTO 05006KT 10SM SCT090 BKN100 23/19 A3005 RMK AO2 SLP174 T02330194
Loading
Personal Weather Stations






























Interactive Weather Map
Tropical Storm Tracking
New forecast layout! Learn more

10-Day Weather Forecast

Advertisements
Track Severe Weather on mobile